メインページ
METAR-TAF:

METAR-TAF

空港 :

エル・アルト国際空港

ラパス, ボリビア

緯度: 16-31S, 経度: 068-11W, 海抜: 4058m

現時点の気象観測

当レポートは26分前の21:00(UTC)に作成
北東の風 9kt
気温 13°C
湿度 47%
気圧 1033 hPa
視程10km以上
高度1700ftの雲は散在している
高度2000ftの雲はほとんどない, 積乱雲.
高度20000ftの千切れ雲あり

METAR: SLLP 202100Z 04009KT 9999 SCT017 FEW020CB BKN200 13/02 Q1033

時間: 17:26 (21:26 UTC)

予報

当レポートは4時間31分前の16:55(UTC)に作成
予報は20日の 18時(UTC)から 21日の 18時(UTC)まで有効
東/南東の風 8kt
視程10km以上
高度1700ftの雲は散在している
高度2000ftの雲はほとんどない, 積乱雲.
高度7000ftの千切れ雲あり
20日の 19時(UTC)から 20日の 22時(UTC)まで一時的に
北東の風 10kt、最大20ktの突風を伴う
視程: 5000m
激しい雷雨, 雨
間 21から02 UTC徐々に
視程: 3000m
近辺で霧
21日の 12時(UTC)から 21日の 14時(UTC)まで徐々に
南東の風 8kt
視程10km以上
高度1500ftの雲は散在している

TAF: SLLP 201655Z 2018/2118 12008KT 9999 SCT017 FEW020CB BKN070 TX15/2020Z TN03/2110Z TEMPO 2019/2022 04010G20KT 5000 TSRA BECMG 2102 /2104 3000E VCFG BECMG 2112/2114 14008KT 9999 NSW SCT015

4,000以上の空港の気象観測と天気予報(METAR報とTAF報)

利用可能な観測所は地図上に黄色い丸と赤い丸で示す。

丸の上にカーソルを重ねると観測所名を参照できる。

次にクリックすると気象観測と天気予報を参照できる。

マップの切り替え:黒色「×」印の緑ボタンをクリックして拡大、「-」印の緑ボタンをクリックして縮小、緑色の三角印をクリックして隣りの地図に切り替え


METAR-TAF: